createdAt,value
2019-01-27T00:00:01.990Z,94.93
2019-01-27T00:02:30.763Z,93.10
2019-01-27T00:04:59.860Z,92.40
2019-01-27T00:07:28.722Z,90.93
2019-01-27T00:09:57.593Z,91.13
2019-01-27T00:12:26.503Z,91.50
2019-01-27T00:14:55.542Z,90.10
2019-01-27T00:17:24.359Z,91.53
2019-01-27T00:19:53.289Z,93.50
2019-01-27T00:22:22.236Z,91.23
2019-01-27T00:24:51.108Z,89.10
2019-01-27T00:27:20.132Z,91.60
2019-01-27T00:29:49.142Z,92.63
2019-01-27T00:32:18.033Z,93.77
2019-01-27T00:34:47.033Z,93.30
2019-01-27T00:37:15.929Z,89.67
2019-01-27T00:39:44.722Z,91.37
2019-01-27T00:42:13.659Z,93.03
2019-01-27T00:44:42.791Z,92.30
2019-01-27T00:47:11.987Z,90.30
2019-01-27T00:49:41.006Z,93.10
2019-01-27T00:52:09.897Z,91.00
2019-01-27T00:54:38.859Z,88.90
2019-01-27T00:57:07.815Z,88.70
2019-01-27T00:59:36.827Z,91.33
2019-01-27T01:02:05.698Z,90.63
2019-01-27T01:04:34.687Z,94.50
2019-01-27T01:07:03.531Z,91.77
2019-01-27T01:09:32.317Z,92.53
2019-01-27T01:12:01.274Z,89.33
2019-01-27T01:14:30.269Z,90.73
2019-01-27T01:16:59.125Z,93.43
2019-01-27T01:19:28.022Z,91.70
2019-01-27T01:21:56.923Z,93.53
2019-01-27T01:24:25.699Z,92.57
2019-01-27T01:26:54.626Z,93.10
2019-01-27T01:29:23.648Z,92.23
2019-01-27T01:31:52.452Z,93.27
2019-01-27T01:34:21.347Z,92.50
2019-01-27T01:36:50.376Z,92.30
2019-01-27T01:39:19.399Z,90.80
2019-01-27T01:41:48.306Z,89.67
2019-01-27T01:44:17.291Z,91.57
2019-01-27T01:46:46.230Z,91.30
2019-01-27T01:49:15.210Z,92.17
2019-01-27T01:51:44.104Z,89.90
2019-01-27T01:54:12.897Z,89.47
2019-01-27T01:56:41.896Z,90.47
2019-01-27T01:59:10.830Z,89.17
2019-01-27T02:01:39.756Z,90.27
2019-01-27T02:04:08.753Z,89.40
2019-01-27T02:06:37.658Z,87.40
2019-01-27T02:09:10.597Z,86.10
2019-01-27T02:11:39.643Z,87.23
2019-01-27T02:14:08.705Z,87.47
2019-01-27T02:16:37.650Z,91.33
2019-01-27T02:19:06.585Z,93.30
2019-01-27T02:21:35.686Z,92.47
2019-01-27T02:24:05.119Z,90.77
2019-01-27T02:26:34.159Z,91.63
2019-01-27T02:29:03.261Z,92.27
2019-01-27T02:31:32.188Z,89.97
2019-01-27T02:34:01.098Z,91.00
2019-01-27T02:36:30.101Z,93.17
2019-01-27T02:38:59.205Z,88.50
2019-01-27T02:41:28.090Z,88.37
2019-01-27T02:43:57.021Z,90.17
2019-01-27T02:46:25.918Z,89.43
2019-01-27T02:48:54.802Z,91.13
2019-01-27T02:51:23.878Z,91.30
2019-01-27T02:53:52.836Z,90.57
2019-01-27T02:56:21.821Z,91.07
2019-01-27T02:58:50.626Z,91.67
2019-01-27T03:01:19.694Z,91.83
2019-01-27T03:03:48.752Z,90.53
2019-01-27T03:06:36.810Z,91.53
2019-01-27T03:09:13.694Z,88.97
2019-01-27T03:11:49.777Z,89.33
2019-01-27T03:14:19.797Z,91.77
2019-01-27T03:16:49.373Z,90.27
2019-01-27T03:19:18.402Z,91.20
2019-01-27T03:21:47.310Z,91.40
2019-01-27T03:24:16.271Z,91.83
2019-01-27T03:26:45.254Z,92.20
2019-01-27T03:29:14.323Z,88.67
2019-01-27T03:31:43.291Z,88.70
2019-01-27T03:34:12.169Z,88.13
2019-01-27T03:36:41.193Z,93.13
2019-01-27T03:39:11.887Z,88.00
2019-01-27T03:41:40.944Z,86.37
2019-01-27T03:44:09.928Z,88.23
2019-01-27T03:46:38.918Z,87.03
2019-01-27T03:49:08.354Z,86.33
2019-01-27T03:51:37.370Z,86.43
2019-01-27T03:54:06.424Z,86.20
2019-01-27T03:56:35.310Z,85.00
2019-01-27T03:59:04.338Z,84.07
2019-01-27T04:01:33.373Z,87.03
2019-01-27T04:04:02.189Z,89.07
2019-01-27T04:06:31.267Z,87.80
2019-01-27T04:09:00.304Z,89.73
2019-01-27T04:11:29.459Z,87.33
2019-01-27T04:13:58.349Z,87.27
2019-01-27T04:16:27.385Z,84.83
2019-01-27T04:18:56.450Z,86.67
2019-01-27T04:21:25.327Z,85.67
2019-01-27T04:23:54.348Z,86.17
2019-01-27T04:26:23.433Z,89.53
2019-01-27T04:28:52.411Z,90.53
2019-01-27T04:31:21.391Z,88.30
2019-01-27T04:33:50.229Z,89.93
2019-01-27T04:36:19.217Z,90.77
2019-01-27T04:38:48.262Z,88.87
2019-01-27T04:41:17.144Z,93.70
2019-01-27T04:43:46.171Z,92.00
2019-01-27T04:46:15.110Z,90.93
2019-01-27T04:48:43.993Z,91.30
2019-01-27T04:51:13.032Z,90.80
2019-01-27T04:53:42.000Z,93.43
2019-01-27T04:56:10.798Z,91.37
2019-01-27T04:58:39.683Z,92.33
2019-01-27T05:01:08.896Z,91.53
2019-01-27T05:03:43.535Z,86.07
2019-01-27T05:06:12.536Z,86.73
2019-01-27T05:08:41.516Z,86.57
2019-01-27T05:11:10.742Z,87.40
2019-01-27T05:13:39.774Z,87.40
2019-01-27T05:16:08.644Z,90.67
2019-01-27T05:18:37.447Z,88.03
2019-01-27T05:21:06.469Z,90.03
2019-01-27T05:23:35.332Z,90.77
2019-01-27T05:26:04.215Z,88.37
2019-01-27T05:28:33.309Z,88.33
2019-01-27T05:31:02.215Z,88.03
2019-01-27T05:33:31.005Z,86.50
2019-01-27T05:35:59.982Z,88.60
2019-01-27T05:38:28.863Z,89.63
2019-01-27T05:40:57.656Z,89.30
2019-01-27T05:43:26.636Z,89.53
2019-01-27T05:45:55.521Z,87.43
2019-01-27T05:48:24.412Z,88.37
2019-01-27T05:50:53.490Z,90.80
2019-01-27T05:53:22.296Z,90.17
2019-01-27T05:55:51.242Z,91.50
2019-01-27T05:58:36.228Z,87.97
2019-01-27T06:01:05.114Z,85.73
2019-01-27T06:03:34.076Z,86.43
2019-01-27T06:06:03.007Z,85.63
2019-01-27T06:08:31.836Z,87.13
2019-01-27T06:11:00.762Z,88.47
2019-01-27T06:13:29.756Z,86.40
2019-01-27T06:15:58.638Z,85.77
2019-01-27T06:18:27.412Z,82.07
2019-01-27T06:20:56.325Z,81.50
2019-01-27T06:23:25.444Z,81.40
2019-01-27T06:25:54.424Z,81.97
2019-01-27T06:28:23.381Z,81.10
2019-01-27T06:30:52.326Z,83.57
2019-01-27T06:33:40.239Z,80.83
2019-01-27T06:36:09.240Z,81.07
2019-01-27T06:38:38.127Z,80.90
2019-01-27T06:41:06.967Z,79.87
2019-01-27T06:43:35.988Z,79.03
2019-01-27T06:46:04.939Z,80.77
2019-01-27T06:48:33.704Z,80.87
2019-01-27T06:51:02.645Z,81.67
2019-01-27T06:53:31.541Z,82.87
2019-01-27T06:56:00.358Z,86.13
2019-01-27T06:58:48.156Z,89.27
2019-01-27T07:01:28.596Z,81.57
2019-01-27T07:04:17.636Z,85.47
2019-01-27T07:06:52.173Z,85.67
2019-01-27T07:09:38.915Z,84.27
2019-01-27T07:12:26.867Z,79.97
2019-01-27T07:15:13.356Z,83.63
2019-01-27T07:17:51.569Z,80.43
2019-01-27T07:20:42.544Z,82.80
2019-01-27T07:23:29.310Z,79.97
2019-01-27T07:26:11.887Z,82.67
2019-01-27T07:29:03.205Z,83.00
2019-01-27T07:31:49.788Z,81.40
2019-01-27T07:34:56.172Z,83.07
2019-01-27T07:37:40.069Z,79.70
2019-01-27T07:40:23.888Z,81.83
2019-01-27T07:43:18.396Z,83.00
2019-01-27T07:46:15.580Z,87.60
2019-01-27T07:48:51.397Z,88.70
2019-01-27T07:51:34.226Z,89.60
2019-01-27T07:54:31.066Z,87.73
2019-01-27T07:57:17.120Z,83.80
2019-01-27T08:00:17.347Z,86.67
2019-01-27T08:03:00.457Z,89.10
2019-01-27T08:05:51.164Z,91.87
2019-01-27T08:08:45.002Z,87.63
2019-01-27T08:11:35.684Z,86.33
2019-01-27T08:14:22.278Z,86.13
2019-01-27T08:17:19.364Z,86.87
2019-01-27T08:19:58.852Z,88.37
2019-01-27T08:22:39.650Z,85.27
2019-01-27T08:25:48.692Z,83.50
2019-01-27T08:28:31.395Z,88.20
2019-01-27T08:31:06.703Z,89.13
2019-01-27T08:33:51.360Z,87.00
2019-01-27T08:36:45.559Z,89.37
2019-01-27T08:39:42.459Z,86.83
2019-01-27T08:42:36.233Z,83.40
2019-01-27T08:45:31.818Z,84.03
2019-01-27T08:48:00.761Z,88.77
2019-01-27T08:50:29.822Z,91.73
2019-01-27T08:52:58.603Z,87.43
2019-01-27T08:55:27.587Z,85.47
2019-01-27T08:57:56.569Z,89.23
2019-01-27T09:00:35.601Z,88.07
2019-01-27T09:03:22.606Z,86.57
2019-01-27T09:06:02.680Z,87.83
2019-01-27T09:08:48.811Z,88.10
2019-01-27T09:11:45.816Z,88.83
2019-01-27T09:14:27.676Z,96.73
2019-01-27T09:17:30.862Z,83.17
2019-01-27T09:20:18.805Z,84.13
2019-01-27T09:23:01.946Z,85.17
2019-01-27T09:25:49.756Z,85.97
2019-01-27T09:28:23.292Z,96.60
2019-01-27T09:31:12.407Z,87.97
2019-01-27T09:34:00.455Z,83.23
2019-01-27T09:36:45.792Z,84.07
2019-01-27T09:39:33.834Z,87.53
2019-01-27T09:42:30.802Z,86.27
2019-01-27T09:45:08.104Z,85.30
2019-01-27T09:47:46.103Z,84.50
2019-01-27T09:50:28.056Z,95.93
2019-01-27T09:53:31.107Z,83.77
2019-01-27T09:56:18.987Z,85.37
2019-01-27T09:58:54.633Z,84.50
2019-01-27T10:01:50.307Z,84.33
2019-01-27T10:04:27.917Z,87.70
2019-01-27T10:07:08.282Z,88.13
2019-01-27T10:10:05.300Z,83.90
2019-01-27T10:12:53.421Z,83.03
2019-01-27T10:15:36.854Z,85.53
2019-01-27T10:18:12.531Z,82.57
2019-01-27T10:20:52.564Z,83.37
2019-01-27T10:23:40.403Z,87.97
2019-01-27T10:26:40.781Z,83.67
2019-01-27T10:29:25.892Z,83.70
2019-01-27T10:32:01.512Z,84.10
2019-01-27T10:34:36.308Z,84.17
2019-01-27T10:37:23.159Z,85.87
2019-01-27T10:40:11.209Z,84.83
2019-01-27T10:42:59.192Z,89.47
2019-01-27T10:45:42.975Z,90.23
2019-01-27T10:48:36.981Z,87.57
2019-01-27T10:51:37.163Z,92.90
2019-01-27T10:54:31.218Z,93.47
2019-01-27T10:57:05.028Z,94.17
2019-01-27T10:59:45.373Z,96.50
2019-01-27T11:02:39.412Z,85.30
2019-01-27T11:05:26.155Z,95.30
2019-01-27T11:08:05.370Z,94.43
2019-01-27T11:10:42.944Z,94.00
2019-01-27T11:13:36.310Z,92.63
2019-01-27T11:16:16.065Z,92.57
2019-01-27T11:18:51.696Z,88.23
2019-01-27T11:21:42.604Z,92.03
2019-01-27T11:24:23.379Z,88.17
2019-01-27T11:27:02.108Z,84.90
2019-01-27T11:29:49.990Z,85.30
2019-01-27T11:32:47.085Z,83.73
2019-01-27T11:35:40.959Z,86.30
2019-01-27T11:38:30.176Z,93.50
2019-01-27T11:41:17.194Z,85.77
2019-01-27T11:44:08.185Z,85.27
2019-01-27T11:46:55.857Z,88.73
2019-01-27T11:49:46.771Z,91.53
2019-01-27T11:52:26.488Z,91.80
2019-01-27T11:54:55.540Z,90.50
2019-01-27T11:57:24.604Z,88.17
2019-01-27T11:59:53.455Z,91.83
2019-01-27T12:02:22.374Z,87.90
2019-01-27T12:04:51.365Z,89.87
2019-01-27T12:07:20.330Z,87.80
2019-01-27T12:09:49.208Z,84.17
2019-01-27T12:12:18.203Z,87.27
2019-01-27T12:14:47.070Z,90.30
2019-01-27T12:17:15.881Z,86.87
2019-01-27T12:19:44.938Z,86.77
2019-01-27T12:22:13.929Z,87.43
2019-01-27T12:24:42.838Z,94.77
2019-01-27T12:27:11.727Z,95.33
2019-01-27T12:29:40.656Z,92.37
2019-01-27T12:32:09.528Z,93.23
2019-01-27T12:34:38.511Z,92.30
2019-01-27T12:37:07.601Z,91.60
2019-01-27T12:39:36.436Z,89.67
2019-01-27T12:42:05.306Z,88.10
2019-01-27T12:44:34.298Z,90.47
2019-01-27T12:47:03.283Z,91.50
2019-01-27T12:49:32.042Z,89.30
2019-01-27T12:52:00.897Z,88.83
2019-01-27T12:54:29.845Z,87.73
2019-01-27T12:56:58.748Z,91.10
2019-01-27T12:59:27.739Z,90.47
2019-01-27T13:01:56.599Z,91.23
2019-01-27T13:04:25.518Z,89.97
2019-01-27T13:06:54.491Z,87.47
2019-01-27T13:09:24.271Z,88.60
2019-01-27T13:11:53.342Z,89.87
2019-01-27T13:14:22.217Z,88.83
2019-01-27T13:16:51.153Z,89.37
2019-01-27T13:19:20.160Z,90.40
2019-01-27T13:21:49.149Z,91.80
2019-01-27T13:24:18.087Z,90.37
2019-01-27T13:26:46.872Z,91.50
2019-01-27T13:29:15.881Z,91.80
2019-01-27T13:31:44.782Z,93.60
2019-01-27T13:34:13.769Z,92.90
2019-01-27T13:36:42.677Z,91.80
2019-01-27T13:39:11.548Z,88.07
2019-01-27T13:41:40.444Z,88.20
2019-01-27T13:44:09.462Z,87.37
2019-01-27T13:46:38.412Z,85.97
2019-01-27T13:49:07.329Z,88.83
2019-01-27T13:51:36.274Z,91.53
2019-01-27T13:54:05.191Z,89.80
2019-01-27T13:56:34.154Z,91.47
2019-01-27T13:59:03.164Z,93.03
2019-01-27T14:01:32.123Z,89.77
2019-01-27T14:04:00.968Z,90.43
2019-01-27T14:06:29.866Z,85.27
2019-01-27T14:08:58.843Z,82.30
2019-01-27T14:11:27.737Z,81.23
2019-01-27T14:13:56.658Z,84.00
2019-01-27T14:16:25.730Z,87.47
2019-01-27T14:18:54.618Z,88.90
2019-01-27T14:21:23.573Z,81.87
2019-01-27T14:23:52.445Z,86.33
2019-01-27T14:26:21.271Z,87.90
2019-01-27T14:28:50.343Z,88.30
2019-01-27T14:31:19.256Z,90.07
2019-01-27T14:33:48.282Z,90.63
2019-01-27T14:36:17.299Z,87.97
2019-01-27T14:38:46.156Z,86.80
2019-01-27T14:41:14.964Z,89.00
2019-01-27T14:43:43.942Z,90.97
2019-01-27T14:46:13.043Z,92.13
2019-01-27T14:48:41.929Z,88.77
2019-01-27T14:51:10.873Z,91.83
2019-01-27T14:53:39.837Z,90.90
2019-01-27T14:56:08.974Z,85.30
2019-01-27T14:58:38.003Z,86.00
2019-01-27T15:01:06.955Z,87.27
2019-01-27T15:03:35.753Z,94.97
2019-01-27T15:06:04.676Z,86.60
2019-01-27T15:08:33.644Z,83.87
2019-01-27T15:11:02.566Z,90.87
2019-01-27T15:13:31.432Z,89.50
2019-01-27T15:16:00.430Z,90.13
2019-01-27T15:18:29.360Z,87.73
2019-01-27T15:21:20.322Z,87.17
2019-01-27T15:23:49.279Z,86.67
2019-01-27T15:26:18.279Z,90.37
2019-01-27T15:28:47.244Z,126.97
2019-01-27T15:31:16.804Z,84.63
2019-01-27T15:33:46.584Z,85.60
2019-01-27T15:36:15.906Z,86.87
2019-01-27T15:38:44.737Z,86.00
2019-01-27T15:41:13.702Z,87.73
2019-01-27T15:43:48.553Z,85.00
2019-01-27T15:46:13.509Z,89.57
2019-01-27T15:48:42.307Z,85.13
2019-01-27T15:51:11.307Z,89.70
2019-01-27T15:53:40.168Z,86.83
2019-01-27T15:56:10.093Z,86.03
2019-01-27T15:58:39.090Z,85.07
2019-01-27T16:01:08.003Z,88.17
2019-01-27T16:03:36.877Z,86.57
2019-01-27T16:06:06.156Z,89.90
2019-01-27T16:08:35.058Z,91.97
2019-01-27T16:11:03.891Z,83.77
2019-01-27T16:13:32.932Z,84.47
2019-01-27T16:16:01.967Z,87.23
2019-01-27T16:18:30.921Z,83.33
2019-01-27T16:20:59.893Z,85.70
2019-01-27T16:23:40.389Z,84.27
2019-01-27T16:26:09.352Z,90.40
2019-01-27T16:28:38.268Z,89.90
2019-01-27T16:31:35.053Z,85.20
2019-01-27T16:34:34.955Z,89.67
2019-01-27T16:37:03.791Z,85.80
2019-01-27T16:39:32.770Z,84.73
2019-01-27T16:42:01.775Z,81.70
2019-01-27T16:44:30.619Z,87.97
2019-01-27T16:46:59.658Z,85.73
2019-01-27T16:49:28.630Z,85.87
2019-01-27T16:51:57.551Z,92.33
2019-01-27T16:54:26.522Z,83.83
2019-01-27T16:56:55.413Z,83.23
2019-01-27T16:59:24.303Z,82.53
2019-01-27T17:01:53.347Z,88.57
2019-01-27T17:04:22.307Z,83.17
2019-01-27T17:06:51.156Z,82.73
2019-01-27T17:09:20.149Z,95.90
2019-01-27T17:11:49.030Z,89.67
2019-01-27T17:14:18.000Z,86.17
2019-01-27T17:16:46.911Z,86.40
2019-01-27T17:19:15.783Z,99.27
2019-01-27T17:21:44.687Z,89.80
2019-01-27T17:24:13.588Z,88.40
2019-01-27T17:26:42.446Z,99.37
2019-01-27T17:29:11.790Z,92.23
2019-01-27T17:31:44.826Z,93.10
2019-01-27T17:34:11.354Z,97.40
2019-01-27T17:36:40.241Z,90.13
2019-01-27T17:39:10.255Z,88.87
2019-01-27T17:41:39.296Z,86.93
2019-01-27T17:44:08.229Z,81.77
2019-01-27T17:46:37.135Z,86.30
2019-01-27T17:49:06.053Z,90.20
2019-01-27T17:51:34.998Z,92.03
2019-01-27T17:54:06.096Z,82.07
2019-01-27T17:56:35.074Z,85.43
2019-01-27T17:59:11.456Z,85.23
2019-01-27T18:01:58.830Z,86.07
2019-01-27T18:04:49.641Z,81.90
2019-01-27T18:07:25.403Z,82.33
2019-01-27T18:10:25.616Z,80.60
2019-01-27T18:13:01.683Z,81.50
2019-01-27T18:15:30.566Z,82.90
2019-01-27T18:17:59.425Z,86.23
2019-01-27T18:20:28.544Z,81.47
2019-01-27T18:22:57.424Z,81.70
2019-01-27T18:25:26.431Z,82.73
2019-01-27T18:27:55.368Z,88.73
2019-01-27T18:30:26.956Z,91.37
2019-01-27T18:32:55.872Z,84.40
2019-01-27T18:35:25.974Z,93.30
2019-01-27T18:37:55.120Z,97.83
2019-01-27T18:40:23.992Z,92.27
2019-01-27T18:42:52.868Z,89.53
2019-01-27T18:45:21.849Z,86.47
2019-01-27T18:47:50.975Z,98.03
2019-01-27T18:50:19.888Z,97.50
2019-01-27T18:52:51.364Z,88.83
2019-01-27T18:55:37.372Z,94.30
2019-01-27T18:58:28.615Z,83.87
2019-01-27T19:01:25.915Z,92.90
2019-01-27T19:04:21.771Z,82.17
2019-01-27T19:07:09.784Z,87.80
2019-01-27T19:09:57.719Z,89.53
2019-01-27T19:12:57.934Z,89.83
2019-01-27T19:15:51.694Z,88.50
2019-01-27T19:18:29.741Z,87.20
2019-01-27T19:21:20.607Z,88.30
2019-01-27T19:24:02.526Z,91.17
2019-01-27T19:27:05.543Z,88.97
2019-01-27T19:29:45.107Z,87.13
2019-01-27T19:32:32.527Z,88.67
2019-01-27T19:35:20.461Z,82.90
2019-01-27T19:38:00.969Z,87.00
2019-01-27T19:40:47.642Z,88.47
2019-01-27T19:43:24.669Z,88.00
2019-01-27T19:46:04.969Z,82.73
2019-01-27T19:48:40.881Z,82.10
2019-01-27T19:51:17.243Z,85.03
2019-01-27T19:54:09.550Z,95.27
2019-01-27T19:56:56.382Z,87.40
2019-01-27T19:59:56.255Z,81.63
2019-01-27T20:02:38.603Z,81.77
2019-01-27T20:05:26.829Z,86.27
2019-01-27T20:08:11.141Z,87.30
2019-01-27T20:10:59.008Z,88.40
2019-01-27T20:13:41.496Z,86.90
2019-01-27T20:16:18.279Z,88.43
2019-01-27T20:19:06.374Z,89.30
2019-01-27T20:21:43.999Z,87.77
2019-01-27T20:24:30.365Z,90.37
2019-01-27T20:27:30.450Z,86.37
2019-01-27T20:30:12.914Z,86.30
2019-01-27T20:33:16.214Z,91.13
2019-01-27T20:36:04.210Z,86.47
2019-01-27T20:38:51.096Z,89.37
2019-01-27T20:41:39.024Z,90.50
2019-01-27T20:44:15.512Z,90.33
2019-01-27T20:47:18.668Z,90.30
2019-01-27T20:49:52.907Z,89.13
2019-01-27T20:52:31.054Z,85.93
2019-01-27T20:55:25.034Z,85.97
2019-01-27T20:58:16.014Z,85.20
2019-01-27T21:01:06.868Z,90.20
2019-01-27T21:03:45.502Z,88.83
2019-01-27T21:06:45.840Z,89.03
2019-01-27T21:09:43.109Z,86.87
2019-01-27T21:12:40.165Z,89.53
2019-01-27T21:15:44.263Z,85.47
2019-01-27T21:18:30.195Z,88.43
2019-01-27T21:20:59.120Z,87.33
2019-01-27T21:23:28.164Z,88.67
2019-01-27T21:25:57.055Z,85.67
2019-01-27T21:28:26.228Z,87.30
2019-01-27T21:30:55.103Z,82.13
2019-01-27T21:33:24.030Z,84.57
2019-01-27T21:35:53.099Z,82.37
2019-01-27T21:38:22.093Z,85.97
2019-01-27T21:40:51.305Z,82.77
2019-01-27T21:43:20.367Z,81.27
2019-01-27T21:45:49.456Z,83.73
2019-01-27T21:48:18.362Z,84.23
2019-01-27T21:50:47.470Z,84.10
2019-01-27T21:53:16.483Z,90.07
2019-01-27T21:55:45.546Z,86.87
2019-01-27T21:58:14.680Z,92.47
2019-01-27T22:00:43.597Z,93.70
2019-01-27T22:03:12.492Z,88.00
2019-01-27T22:05:41.617Z,87.53
2019-01-27T22:08:10.567Z,87.10
2019-01-27T22:10:39.638Z,86.33
2019-01-27T22:13:08.668Z,87.37
2019-01-27T22:15:37.668Z,86.37
2019-01-27T22:18:06.483Z,95.80
2019-01-27T22:20:35.598Z,86.03
2019-01-27T22:23:06.038Z,92.07
2019-01-27T22:25:35.247Z,83.40
2019-01-27T22:28:04.265Z,89.70
2019-01-27T22:30:33.228Z,91.30
2019-01-27T22:33:02.043Z,90.67
2019-01-27T22:35:31.039Z,86.60
2019-01-27T22:37:59.954Z,87.23
2019-01-27T22:40:28.883Z,87.93
2019-01-27T22:42:57.873Z,85.03
2019-01-27T22:45:27.043Z,86.60
2019-01-27T22:47:55.923Z,84.47
2019-01-27T22:50:24.914Z,84.40
2019-01-27T22:52:53.933Z,84.10
2019-01-27T22:55:22.981Z,81.50
2019-01-27T22:57:51.984Z,85.33
2019-01-27T23:00:55.211Z,84.57
2019-01-27T23:03:24.753Z,79.67
2019-01-27T23:05:53.640Z,87.47
2019-01-27T23:08:22.527Z,83.00
2019-01-27T23:10:51.555Z,84.03
2019-01-27T23:13:20.484Z,83.07
2019-01-27T23:15:49.281Z,85.03
2019-01-27T23:18:18.339Z,89.37
2019-01-27T23:20:47.434Z,85.20
2019-01-27T23:23:16.384Z,83.87
2019-01-27T23:25:46.077Z,133.63
2019-01-27T23:28:34.768Z,141.57
2019-01-27T23:31:04.400Z,137.87
2019-01-27T23:33:34.262Z,137.07
2019-01-27T23:36:03.650Z,127.83
2019-01-27T23:38:33.860Z,137.37
2019-01-27T23:41:04.223Z,142.70
2019-01-27T23:43:34.280Z,145.30
2019-01-27T23:46:38.879Z,140.97
2019-01-27T23:49:07.853Z,87.93
2019-01-27T23:51:36.881Z,85.77
2019-01-27T23:54:05.771Z,93.67
2019-01-27T23:56:34.924Z,88.67
2019-01-27T23:59:03.949Z,86.93
